createdAt,value
2023-01-20T00:01:46.237Z,5.51
2023-01-20T00:04:51.863Z,5.41
2023-01-20T00:07:57.269Z,5.42
2023-01-20T00:11:02.372Z,5.33
2023-01-20T00:14:14.532Z,5.26
2023-01-20T00:17:19.630Z,5.10
2023-01-20T00:20:25.952Z,5.00
2023-01-20T00:23:30.694Z,4.90
2023-01-20T00:26:39.288Z,4.92
2023-01-20T00:29:38.878Z,4.94
2023-01-20T00:32:46.151Z,4.95
2023-01-20T00:35:52.495Z,4.95
2023-01-20T00:38:58.199Z,4.88
2023-01-20T00:42:03.063Z,4.93
2023-01-20T00:45:08.676Z,4.94
2023-01-20T00:48:14.793Z,4.92
2023-01-20T00:51:20.137Z,4.82
2023-01-20T00:54:25.469Z,4.81
2023-01-20T00:57:31.639Z,5.00
2023-01-20T01:00:37.180Z,4.87
2023-01-20T01:03:42.863Z,4.86
2023-01-20T01:06:49.168Z,4.91
2023-01-20T01:09:54.361Z,4.93
2023-01-20T01:13:00.744Z,4.82
2023-01-20T01:16:05.356Z,4.78
2023-01-20T01:19:10.738Z,4.86
2023-01-20T01:22:15.815Z,4.91
2023-01-20T01:25:22.028Z,4.79
2023-01-20T01:28:21.329Z,4.74
2023-01-20T01:31:28.309Z,4.76
2023-01-20T01:34:33.586Z,4.88
2023-01-20T01:37:39.472Z,4.84
2023-01-20T01:40:48.902Z,4.81
2023-01-20T01:43:54.316Z,4.74
2023-01-20T01:47:00.516Z,4.78
2023-01-20T01:50:05.938Z,4.75
2023-01-20T01:53:11.593Z,4.68
2023-01-20T01:56:17.333Z,4.83
2023-01-20T01:59:22.384Z,4.76
2023-01-20T02:02:28.136Z,4.71
2023-01-20T02:05:34.524Z,4.71
2023-01-20T02:08:40.739Z,4.71
2023-01-20T02:11:48.223Z,4.71
2023-01-20T02:14:56.379Z,4.68
2023-01-20T02:18:14.299Z,4.62
2023-01-20T02:21:47.218Z,4.67
2023-01-20T02:25:25.438Z,4.61
2023-01-20T02:29:01.279Z,4.67
2023-01-20T02:32:36.510Z,4.74
2023-01-20T02:36:11.640Z,4.62
2023-01-20T02:39:27.926Z,4.78
2023-01-20T02:42:55.719Z,4.74
2023-01-20T02:46:08.360Z,4.92
2023-01-20T02:49:39.477Z,4.91
2023-01-20T02:52:49.498Z,4.92
2023-01-20T02:55:58.093Z,4.97
2023-01-20T02:59:04.018Z,4.93
2023-01-20T03:02:28.795Z,5.13
2023-01-20T03:05:37.206Z,4.65
2023-01-20T03:08:44.043Z,4.41
2023-01-20T03:11:49.910Z,4.39
2023-01-20T03:14:54.635Z,4.52
2023-01-20T03:18:00.847Z,4.56
2023-01-20T03:21:06.446Z,4.51
2023-01-20T03:24:15.575Z,4.49
2023-01-20T03:27:21.161Z,4.59
2023-01-20T03:30:32.325Z,4.58
2023-01-20T03:33:38.076Z,4.51
2023-01-20T03:36:44.861Z,4.49
2023-01-20T03:39:43.653Z,4.41
2023-01-20T03:43:08.063Z,4.47
2023-01-20T03:46:20.884Z,4.44
2023-01-20T03:49:33.895Z,4.45
2023-01-20T03:52:48.758Z,4.58
2023-01-20T03:56:22.232Z,4.49
2023-01-20T03:59:28.472Z,4.51
2023-01-20T04:02:33.653Z,4.30
2023-01-20T04:05:39.361Z,4.39
2023-01-20T04:08:48.002Z,4.58
2023-01-20T04:11:53.741Z,4.55
2023-01-20T04:14:59.867Z,3.97
2023-01-20T04:17:57.988Z,3.90
2023-01-20T04:21:07.095Z,3.92
2023-01-20T04:24:28.005Z,3.92
2023-01-20T04:27:34.426Z,3.89
2023-01-20T04:30:40.257Z,3.99
2023-01-20T04:33:46.581Z,3.91
2023-01-20T04:36:51.894Z,3.87
2023-01-20T04:39:58.080Z,3.44
2023-01-20T04:43:04.066Z,3.84
2023-01-20T04:46:11.350Z,3.90
2023-01-20T04:49:17.396Z,4.04
2023-01-20T04:52:22.206Z,3.79
2023-01-20T04:55:28.202Z,3.88
2023-01-20T04:58:34.007Z,3.76
2023-01-20T05:01:38.949Z,3.69
2023-01-20T05:04:31.046Z,3.64
2023-01-20T05:07:36.067Z,3.68
2023-01-20T05:10:42.449Z,3.74
2023-01-20T05:13:47.958Z,3.73
2023-01-20T05:16:53.706Z,3.71
2023-01-20T05:19:59.116Z,3.56
2023-01-20T05:23:05.095Z,3.65
2023-01-20T05:26:09.824Z,3.68
2023-01-20T05:29:16.283Z,3.74
2023-01-20T05:32:23.071Z,3.74
2023-01-20T05:35:28.628Z,3.59
2023-01-20T05:38:34.529Z,3.56
2023-01-20T05:41:40.210Z,3.51
2023-01-20T05:44:45.611Z,3.50
2023-01-20T05:47:51.295Z,3.55
2023-01-20T05:50:56.885Z,3.64
2023-01-20T05:54:02.988Z,3.54
2023-01-20T05:57:07.680Z,3.56
2023-01-20T06:00:13.399Z,3.75
2023-01-20T06:03:19.141Z,3.90
2023-01-20T06:06:25.933Z,3.94
2023-01-20T06:09:31.369Z,3.88
2023-01-20T06:12:37.225Z,3.78
2023-01-20T06:15:43.759Z,3.61
2023-01-20T06:18:49.307Z,3.58
2023-01-20T06:21:55.574Z,3.80
2023-01-20T06:25:01.576Z,3.94
2023-01-20T06:28:07.396Z,3.92
2023-01-20T06:31:18.814Z,3.90
2023-01-20T06:34:24.724Z,3.87
2023-01-20T06:37:30.147Z,3.91
2023-01-20T06:40:36.320Z,4.09
2023-01-20T06:43:45.984Z,4.29
2023-01-20T06:46:52.804Z,4.49
2023-01-20T06:49:59.413Z,4.48
2023-01-20T06:53:06.580Z,4.47
2023-01-20T06:56:12.563Z,4.36
2023-01-20T06:59:18.571Z,4.20
2023-01-20T07:02:27.551Z,4.26
2023-01-20T07:05:34.311Z,4.27
2023-01-20T07:08:39.413Z,4.19
2023-01-20T07:11:38.707Z,4.24
2023-01-20T07:14:30.653Z,4.23
2023-01-20T07:17:28.815Z,4.46
2023-01-20T07:20:34.405Z,4.13
2023-01-20T07:23:40.229Z,4.29
2023-01-20T07:26:45.575Z,4.39
2023-01-20T07:29:51.186Z,4.47
2023-01-20T07:32:58.133Z,4.13
2023-01-20T07:36:07.651Z,4.09
2023-01-20T07:39:12.771Z,4.13
2023-01-20T07:42:17.480Z,4.14
2023-01-20T07:45:23.450Z,4.14
2023-01-20T07:48:28.632Z,4.17
2023-01-20T07:51:34.652Z,4.36
2023-01-20T07:54:40.458Z,4.42
2023-01-20T07:57:47.159Z,4.43
2023-01-20T08:00:55.605Z,4.77
2023-01-20T08:04:02.521Z,4.74
2023-01-20T08:07:07.800Z,4.79
2023-01-20T08:10:12.812Z,4.85
2023-01-20T08:13:18.353Z,5.25
2023-01-20T08:16:25.215Z,5.38
2023-01-20T08:19:30.800Z,5.46
2023-01-20T08:22:36.263Z,5.56
2023-01-20T08:25:41.152Z,5.55
2023-01-20T08:28:47.598Z,5.67
2023-01-20T08:31:54.268Z,5.84
2023-01-20T08:35:00.469Z,5.81
2023-01-20T08:38:05.665Z,5.58
2023-01-20T08:41:11.767Z,5.61
2023-01-20T08:44:18.146Z,5.56
2023-01-20T08:47:23.375Z,5.61
2023-01-20T08:50:23.670Z,5.70
2023-01-20T08:53:29.748Z,5.73
2023-01-20T08:56:35.276Z,5.75
2023-01-20T08:59:41.239Z,5.83
2023-01-20T09:02:47.350Z,6.07
2023-01-20T09:05:53.475Z,6.10
2023-01-20T09:09:00.423Z,6.02
2023-01-20T09:12:05.899Z,6.13
2023-01-20T09:15:14.501Z,6.13
2023-01-20T09:18:20.469Z,6.02
2023-01-20T09:21:27.051Z,5.99
2023-01-20T09:24:32.417Z,6.38
2023-01-20T09:27:38.473Z,6.29
2023-01-20T09:30:43.992Z,6.22
2023-01-20T09:33:52.996Z,6.39
2023-01-20T09:36:59.713Z,6.48
2023-01-20T09:40:23.635Z,6.56
2023-01-20T09:44:04.431Z,6.62
2023-01-20T09:47:56.285Z,6.76
2023-01-20T09:51:26.621Z,6.91
2023-01-20T09:54:41.123Z,6.89
2023-01-20T09:57:50.004Z,6.89
2023-01-20T10:00:57.873Z,7.09
2023-01-20T10:04:25.427Z,7.08
2023-01-20T10:07:49.951Z,7.03
2023-01-20T10:11:26.082Z,7.11
2023-01-20T10:15:24.552Z,7.09
2023-01-20T10:18:36.351Z,7.04
2023-01-20T10:21:51.421Z,7.14
2023-01-20T10:25:04.759Z,7.30
2023-01-20T10:28:19.537Z,7.31
2023-01-20T10:31:25.383Z,7.38
2023-01-20T10:34:34.392Z,7.35
2023-01-20T10:37:42.787Z,7.53
2023-01-20T10:41:13.379Z,7.49
2023-01-20T10:44:26.004Z,7.60
2023-01-20T10:47:54.476Z,7.79
2023-01-20T10:51:25.667Z,8.03
2023-01-20T10:54:59.541Z,7.96
2023-01-20T10:58:12.545Z,7.92
2023-01-20T11:01:20.535Z,7.89
2023-01-20T11:04:32.994Z,8.04
2023-01-20T11:07:31.229Z,8.07
2023-01-20T11:10:35.395Z,7.98
2023-01-20T11:13:36.910Z,8.13
2023-01-20T11:16:42.664Z,8.24
2023-01-20T11:20:10.662Z,8.35
2023-01-20T11:23:16.805Z,8.45
2023-01-20T11:26:51.252Z,8.63
2023-01-20T11:30:02.374Z,8.74
2023-01-20T11:33:39.079Z,8.70
2023-01-20T11:36:46.269Z,8.64
2023-01-20T11:39:59.120Z,8.83
2023-01-20T11:42:53.562Z,8.60
2023-01-20T11:45:45.544Z,8.73
2023-01-20T11:48:31.369Z,8.91
2023-01-20T11:51:40.432Z,9.01
2023-01-20T11:54:45.509Z,8.98
2023-01-20T11:57:55.757Z,9.02
2023-01-20T12:01:02.401Z,8.94
2023-01-20T12:04:36.755Z,8.90
2023-01-20T12:08:00.419Z,8.93
2023-01-20T12:11:05.552Z,8.94
2023-01-20T12:14:37.509Z,8.88
2023-01-20T12:18:11.550Z,8.65
2023-01-20T12:21:27.734Z,8.80
2023-01-20T12:24:47.190Z,8.62
2023-01-20T12:28:04.348Z,8.40
2023-01-20T12:31:16.776Z,8.41
2023-01-20T12:34:30.252Z,8.25
2023-01-20T12:37:47.893Z,8.52
2023-01-20T12:41:01.062Z,8.22
2023-01-20T12:44:27.232Z,8.18
2023-01-20T12:47:58.816Z,8.11
2023-01-20T12:51:22.602Z,8.15
2023-01-20T12:55:01.722Z,8.11
2023-01-20T12:58:19.078Z,7.84
2023-01-20T13:02:06.676Z,7.96
2023-01-20T13:05:18.801Z,8.00
2023-01-20T13:09:14.003Z,7.88
2023-01-20T13:12:59.399Z,7.85
2023-01-20T13:16:17.512Z,7.45
2023-01-20T13:19:48.958Z,7.15
2023-01-20T13:22:55.346Z,7.16
2023-01-20T13:26:00.994Z,7.03
2023-01-20T13:29:09.642Z,6.99
2023-01-20T13:32:15.866Z,7.00
2023-01-20T13:35:40.924Z,7.02
2023-01-20T13:38:46.574Z,7.00
2023-01-20T13:42:06.000Z,6.94
2023-01-20T13:45:35.922Z,6.89
2023-01-20T13:48:41.980Z,6.85
2023-01-20T13:51:57.166Z,6.89
2023-01-20T13:55:03.371Z,6.80
2023-01-20T13:58:09.069Z,6.62
2023-01-20T14:01:19.585Z,6.52
2023-01-20T14:04:33.870Z,6.40
2023-01-20T14:07:43.124Z,6.33
2023-01-20T14:10:50.103Z,6.34
2023-01-20T14:13:56.936Z,6.45
2023-01-20T14:17:03.561Z,6.38
2023-01-20T14:20:09.334Z,6.39
2023-01-20T14:23:41.060Z,6.29
2023-01-20T14:26:47.155Z,6.19
2023-01-20T14:29:53.832Z,5.94
2023-01-20T14:32:58.643Z,5.91
2023-01-20T14:36:04.375Z,5.87
2023-01-20T14:39:13.872Z,5.70
2023-01-20T14:42:17.811Z,5.78
2023-01-20T14:45:33.937Z,5.94
2023-01-20T14:48:39.613Z,5.81
2023-01-20T14:51:46.081Z,5.56
2023-01-20T14:55:02.349Z,5.66
2023-01-20T14:58:08.729Z,5.39
2023-01-20T15:01:12.720Z,5.34
2023-01-20T15:04:19.737Z,5.36
2023-01-20T15:07:32.072Z,5.07
2023-01-20T15:10:37.467Z,5.07
2023-01-20T15:13:42.422Z,5.02
2023-01-20T15:16:58.263Z,4.97
2023-01-20T15:20:03.625Z,5.07
2023-01-20T15:23:09.376Z,4.86
2023-01-20T15:26:32.573Z,4.98
2023-01-20T15:29:44.386Z,4.91
2023-01-20T15:32:48.993Z,4.71
2023-01-20T15:35:53.759Z,4.64
2023-01-20T15:38:59.241Z,4.51
2023-01-20T15:42:06.022Z,4.41
2023-01-20T15:45:11.801Z,4.31
2023-01-20T15:48:17.467Z,4.20
2023-01-20T15:51:25.308Z,4.05
2023-01-20T15:54:30.827Z,3.91
2023-01-20T15:57:35.395Z,3.83
2023-01-20T16:00:44.932Z,3.78
2023-01-20T16:03:51.801Z,3.75
2023-01-20T16:06:56.943Z,3.69
2023-01-20T16:10:03.509Z,3.62
2023-01-20T16:13:09.796Z,3.52
2023-01-20T16:16:16.496Z,3.47
2023-01-20T16:19:25.717Z,3.49
2023-01-20T16:22:31.312Z,3.42
2023-01-20T16:25:36.984Z,3.48
2023-01-20T16:28:43.291Z,3.41
2023-01-20T16:31:48.968Z,3.38
2023-01-20T16:34:54.594Z,3.30
2023-01-20T16:38:03.973Z,3.25
2023-01-20T16:41:20.726Z,3.25
2023-01-20T16:44:25.908Z,3.40
2023-01-20T16:47:30.923Z,3.31
2023-01-20T16:50:36.423Z,3.18
2023-01-20T16:53:42.544Z,3.13
2023-01-20T16:56:48.680Z,3.12
2023-01-20T16:59:46.535Z,3.27
2023-01-20T17:02:52.104Z,3.14
2023-01-20T17:05:58.480Z,3.17
2023-01-20T17:09:05.851Z,3.11
2023-01-20T17:12:11.627Z,3.11
2023-01-20T17:15:16.793Z,3.07
2023-01-20T17:18:24.059Z,3.05
2023-01-20T17:21:30.110Z,3.05
2023-01-20T17:24:35.164Z,3.05
2023-01-20T17:27:39.854Z,3.17
2023-01-20T17:30:45.816Z,3.08
2023-01-20T17:33:50.452Z,3.00
2023-01-20T17:36:56.484Z,2.93
2023-01-20T17:40:01.708Z,2.91
2023-01-20T17:43:11.319Z,2.89
2023-01-20T17:46:29.690Z,2.85
2023-01-20T17:49:35.158Z,2.81
2023-01-20T17:52:40.062Z,2.81
2023-01-20T17:55:45.023Z,2.80
2023-01-20T17:58:51.413Z,2.81
2023-01-20T18:02:01.713Z,2.77
2023-01-20T18:05:06.944Z,2.88
2023-01-20T18:08:13.948Z,2.90
2023-01-20T18:11:25.692Z,2.92
2023-01-20T18:14:33.020Z,2.90
2023-01-20T18:17:40.842Z,2.95
2023-01-20T18:20:46.357Z,2.97
2023-01-20T18:23:52.634Z,2.94
2023-01-20T18:26:58.082Z,2.94
2023-01-20T18:30:05.992Z,2.95
2023-01-20T18:33:11.492Z,2.94
2023-01-20T18:36:23.521Z,2.96
2023-01-20T18:39:32.060Z,2.97
2023-01-20T18:42:37.391Z,2.95
2023-01-20T18:45:43.511Z,2.89
2023-01-20T18:48:55.510Z,2.89
2023-01-20T18:52:02.372Z,2.91
2023-01-20T18:55:07.536Z,2.88
2023-01-20T18:58:15.811Z,2.94
2023-01-20T19:01:26.738Z,2.99
2023-01-20T19:04:32.228Z,2.95
2023-01-20T19:07:37.183Z,2.96
2023-01-20T19:10:42.770Z,2.96
2023-01-20T19:13:47.531Z,3.02
2023-01-20T19:16:55.030Z,2.95
2023-01-20T19:20:01.615Z,2.92
2023-01-20T19:23:08.161Z,2.99
2023-01-20T19:26:16.487Z,3.05
2023-01-20T19:29:28.343Z,3.08
2023-01-20T19:32:33.510Z,3.12
2023-01-20T19:35:42.065Z,3.17
2023-01-20T19:38:49.108Z,3.08
2023-01-20T19:41:54.660Z,3.16
2023-01-20T19:44:59.570Z,3.16
2023-01-20T19:48:05.396Z,3.17
2023-01-20T19:51:11.386Z,3.14
2023-01-20T19:54:16.891Z,3.35
2023-01-20T19:57:21.609Z,3.29
2023-01-20T20:00:29.054Z,3.24
2023-01-20T20:03:35.293Z,3.29
2023-01-20T20:06:55.830Z,3.29
2023-01-20T20:10:03.007Z,3.29
2023-01-20T20:13:09.131Z,3.11
2023-01-20T20:16:18.679Z,2.86
2023-01-20T20:19:26.913Z,2.87
2023-01-20T20:22:33.204Z,2.85
2023-01-20T20:25:39.721Z,2.83
2023-01-20T20:28:45.160Z,2.82
2023-01-20T20:31:50.819Z,2.81
2023-01-20T20:34:57.010Z,2.83
2023-01-20T20:38:03.446Z,2.72
2023-01-20T20:41:14.524Z,2.84
2023-01-20T20:44:19.296Z,2.78
2023-01-20T20:47:27.202Z,2.80
2023-01-20T20:50:33.993Z,2.78
2023-01-20T20:53:39.413Z,2.76
2023-01-20T20:56:44.609Z,2.86
2023-01-20T20:59:59.187Z,2.97
2023-01-20T21:02:56.704Z,2.98
2023-01-20T21:06:02.697Z,2.95
2023-01-20T21:09:09.737Z,2.81
2023-01-20T21:12:15.344Z,2.90
2023-01-20T21:15:21.305Z,2.81
2023-01-20T21:18:27.838Z,2.81
2023-01-20T21:21:32.634Z,2.92
2023-01-20T21:24:39.184Z,2.93
2023-01-20T21:27:44.997Z,2.96
2023-01-20T21:30:50.530Z,2.95
2023-01-20T21:33:57.960Z,2.94
2023-01-20T21:37:02.835Z,2.87
2023-01-20T21:40:08.507Z,2.79
2023-01-20T21:43:32.494Z,2.94
2023-01-20T21:46:39.487Z,2.96
2023-01-20T21:50:05.132Z,2.89
2023-01-20T21:53:10.967Z,3.08
2023-01-20T21:56:16.915Z,2.83
2023-01-20T21:59:22.919Z,2.87
2023-01-20T22:02:28.964Z,2.96
2023-01-20T22:05:35.292Z,3.00
2023-01-20T22:08:42.175Z,3.17
2023-01-20T22:11:48.573Z,3.20
2023-01-20T22:14:54.546Z,3.05
2023-01-20T22:17:54.142Z,2.95
2023-01-20T22:20:47.168Z,2.91
2023-01-20T22:23:52.733Z,2.88
2023-01-20T22:27:03.935Z,2.95
2023-01-20T22:30:09.659Z,2.92
2023-01-20T22:33:16.409Z,2.98
2023-01-20T22:36:22.784Z,2.95
2023-01-20T22:39:28.669Z,2.84
2023-01-20T22:42:34.511Z,2.80
2023-01-20T22:45:39.858Z,2.86
2023-01-20T22:48:46.780Z,2.89
2023-01-20T22:51:52.708Z,2.86
2023-01-20T22:54:58.822Z,2.81
2023-01-20T22:58:04.621Z,2.71
2023-01-20T23:01:10.649Z,2.65
2023-01-20T23:04:19.295Z,2.60
2023-01-20T23:07:17.517Z,2.49
2023-01-20T23:10:25.783Z,2.48
2023-01-20T23:13:31.324Z,2.54
2023-01-20T23:16:37.541Z,2.76
2023-01-20T23:19:36.471Z,2.72
2023-01-20T23:22:42.532Z,2.70
2023-01-20T23:25:47.782Z,2.50
2023-01-20T23:28:53.515Z,2.51
2023-01-20T23:31:59.938Z,2.47
2023-01-20T23:35:05.642Z,2.51
2023-01-20T23:38:11.518Z,2.45
2023-01-20T23:41:16.393Z,2.40
2023-01-20T23:44:21.993Z,2.48
2023-01-20T23:47:27.828Z,2.75
2023-01-20T23:50:33.922Z,2.57
2023-01-20T23:53:39.113Z,2.47
2023-01-20T23:56:45.125Z,2.45
2023-01-20T23:59:52.161Z,2.60
